Time;durP1;ratioP1;P1;durP2;ratioP2;P2;SDS_P1;SDS_P2;PMS_P1;PMS_P2;Temp;Humidity;BMP_temperature;BMP_pressure;BME280_temperature;BME280_humidity;BME280_pressure;Samples;Min_cycle;Max_cycle;Signal;HPM_P1;HPM_P2
2021/09/11 00:00:56;;;;;;;1.27;0.40;;;;;14.10;100865.00;;;;5052235;28;20064;-74
2021/09/11 00:03:25;;;;;;;0.05;0.05;;;;;14.10;100883.00;;;;5052584;28;20061;-73
2021/09/11 00:05:54;;;;;;;0.47;0.47;;;;;14.10;100871.00;;;;5052400;28;20044;-76
2021/09/11 00:08:23;;;;;;;2.22;1.15;;;;;14.00;100880.00;;;;5050535;28;20041;-73
2021/09/11 00:10:52;;;;;;;0.75;0.68;;;;;14.00;100884.00;;;;5052250;28;20045;-77
2021/09/11 00:13:21;;;;;;;7.00;6.60;;;;;13.90;100888.00;;;;5050455;28;20049;-75
2021/09/11 00:15:51;;;;;;;0.00;0.00;;;;;13.90;100890.00;;;;5052674;28;20420;-75
2021/09/11 00:18:19;;;;;;;4.30;4.00;;;;;13.90;100891.00;;;;5052338;28;20045;-72
2021/09/11 00:20:48;;;;;;;52.00;7.53;;;;;13.80;100875.00;;;;5052212;28;20049;-74
2021/09/11 00:23:17;;;;;;;1.92;1.75;;;;;13.80;100906.00;;;;5052459;28;20684;-73
2021/09/11 00:25:46;;;;;;;1.38;1.35;;;;;13.80;100893.00;;;;5051398;28;20049;-74
2021/09/11 00:28:15;;;;;;;24.08;22.45;;;;;13.70;100914.00;;;;5052679;28;20053;-73
2021/09/11 00:30:44;;;;;;;20.05;18.60;;;;;13.70;100907.00;;;;5052502;28;20060;-74
2021/09/11 00:33:13;;;;;;;30.63;11.50;;;;;13.70;100892.00;;;;5052726;28;20535;-74
2021/09/11 00:35:42;;;;;;;0.00;0.00;;;;;13.70;100894.00;;;;5052661;28;20049;-74
2021/09/11 00:38:11;;;;;;;11.55;10.57;;;;;13.80;100909.00;;;;5052014;28;20053;-74
2021/09/11 00:40:39;;;;;;;86.95;18.35;;;;;13.80;100912.00;;;;5051975;28;20045;-74
2021/09/11 00:43:08;;;;;;;2.53;2.03;;;;;13.80;100901.00;;;;5052847;28;20053;-75
2021/09/11 00:45:37;;;;;;;259.20;92.97;;;;;13.80;100905.00;;;;5052932;28;20052;-74
2021/09/11 00:48:06;;;;;;;99.82;30.55;;;;;13.80;100911.00;;;;5052332;28;20494;-74
2021/09/11 00:50:35;;;;;;;29.77;26.90;;;;;13.80;100903.00;;;;5050796;28;20060;-75
2021/09/11 00:53:04;;;;;;;0.00;0.00;;;;;13.90;100916.00;;;;5050773;28;20432;-74
2021/09/11 00:55:33;;;;;;;163.68;31.75;;;;;13.90;100906.00;;;;5051621;28;20149;-75
2021/09/11 00:58:02;;;;;;;6.38;1.35;;;;;13.90;100924.00;;;;5052026;28;20048;-73
2021/09/11 01:00:31;;;;;;;3.28;3.08;;;;;13.90;100921.00;;;;5052417;28;20079;-74
2021/09/11 01:03:00;;;;;;;6.25;2.85;;;;;13.90;100910.00;;;;5052229;28;20092;-74
2021/09/11 01:05:30;;;;;;;10.90;10.27;;;;;13.90;100924.00;;;;5051977;28;20056;-74
2021/09/11 01:07:59;;;;;;;19.67;17.17;;;;;13.90;100938.00;;;;5052547;28;20048;-74
2021/09/11 01:10:27;;;;;;;0.55;0.40;;;;;13.90;100923.00;;;;5049207;28;21103;-74
2021/09/11 01:12:57;;;;;;;1.55;0.57;;;;;14.00;100913.00;;;;5047400;28;20063;-75
2021/09/11 01:15:38;;;;;;;5.93;2.42;;;;;13.90;100913.00;;;;5048325;28;20056;-74
2021/09/11 01:18:08;;;;;;;1.08;0.88;;;;;13.90;100938.00;;;;5048475;28;20045;-74
2021/09/11 01:20:39;;;;;;;9.40;2.30;;;;;14.00;100921.00;;;;5048296;28;20423;-74
2021/09/11 01:23:08;;;;;;;21.67;19.33;;;;;14.00;100927.00;;;;5048792;28;20534;-74
2021/09/11 01:25:37;;;;;;;224.65;31.80;;;;;14.00;100920.00;;;;5048437;28;20048;-75
2021/09/11 01:28:06;;;;;;;776.58;273.77;;;;;14.00;100909.00;;;;5048666;28;20045;-74
2021/09/11 01:30:35;;;;;;;5.28;3.92;;;;;14.00;100937.00;;;;5048673;28;20045;-74
2021/09/11 01:33:04;;;;;;;27.98;15.27;;;;;14.00;100943.00;;;;5049588;28;20055;-75
2021/09/11 01:35:33;;;;;;;77.78;56.30;;;;;14.00;100938.00;;;;5049167;28;20060;-74
2021/09/11 01:38:02;;;;;;;9.88;9.18;;;;;13.90;100928.00;;;;5047558;28;20048;-74
2021/09/11 01:40:31;;;;;;;5.55;2.15;;;;;14.00;100948.00;;;;5048560;28;20049;-74
2021/09/11 01:43:00;;;;;;;3.92;3.72;;;;;13.90;100942.00;;;;5048113;28;20053;-74
2021/09/11 01:45:29;;;;;;;0.00;0.00;;;;;13.90;100934.00;;;;5048876;28;20079;-74
2021/09/11 01:47:58;;;;;;;5.65;5.25;;;;;13.90;100945.00;;;;5048349;28;20045;-74
2021/09/11 01:50:27;;;;;;;10.75;9.80;;;;;13.90;100942.00;;;;5048580;28;20139;-74
2021/09/11 01:52:56;;;;;;;1.85;1.80;;;;;13.90;100942.00;;;;5048221;28;20504;-74
2021/09/11 01:55:25;;;;;;;484.85;386.30;;;;;14.00;100927.00;;;;5047629;28;20136;-75
2021/09/11 01:57:54;;;;;;;13.73;12.77;;;;;14.00;100924.00;;;;5047812;28;20389;-75
2021/09/11 02:00:23;;;;;;;36.15;25.35;;;;;14.00;100921.00;;;;5049254;28;20532;-74
2021/09/11 02:02:52;;;;;;;0.08;0.08;;;;;14.00;100938.00;;;;5047866;28;20057;-74
2021/09/11 02:05:22;;;;;;;34.20;27.13;;;;;14.00;100921.00;;;;5046910;28;20055;-74
2021/09/11 02:07:50;;;;;;;11.25;10.60;;;;;14.00;100941.00;;;;5048114;28;20049;-73
2021/09/11 02:10:19;;;;;;;4.90;4.60;;;;;14.00;100925.00;;;;5047671;28;20044;-73
2021/09/11 02:12:49;;;;;;;0.30;0.30;;;;;14.00;100926.00;;;;5047664;28;20132;-74
2021/09/11 02:15:19;;;;;;;1.13;1.00;;;;;14.00;100926.00;;;;5048526;28;20055;-73
2021/09/11 02:17:48;;;;;;;0.80;0.77;;;;;14.10;100945.00;;;;5047797;28;20427;-73
2021/09/11 02:20:17;;;;;;;2.30;2.20;;;;;14.20;100913.00;;;;5047480;28;20041;-74
2021/09/11 02:22:46;;;;;;;4.57;2.97;;;;;14.30;100931.00;;;;5046916;28;20049;-73
2021/09/11 02:25:15;;;;;;;1.15;1.05;;;;;14.30;100932.00;;;;5047992;28;20599;-73
2021/09/11 02:27:44;;;;;;;3.00;2.72;;;;;14.20;100912.00;;;;5048089;28;20068;-74
2021/09/11 02:30:13;;;;;;;0.25;0.15;;;;;14.20;100924.00;;;;5047720;28;20060;-74
2021/09/11 02:32:42;;;;;;;13.95;12.95;;;;;14.10;100925.00;;;;5047430;28;20045;-73
2021/09/11 02:35:11;;;;;;;3.63;3.42;;;;;14.10;100925.00;;;;5047611;28;20049;-74
2021/09/11 02:37:40;;;;;;;3.20;2.90;;;;;14.10;100918.00;;;;5047261;28;20045;-74
2021/09/11 02:40:10;;;;;;;0.15;0.15;;;;;14.10;100904.00;;;;5047046;28;20083;-73
2021/09/11 02:42:39;;;;;;;0.10;0.10;;;;;14.00;100921.00;;;;5047489;28;20448;-73
2021/09/11 02:45:08;;;;;;;1999.90;999.90;;;;;14.00;100905.00;;;;5046956;28;20072;-74
2021/09/11 02:47:37;;;;;;;188.30;63.40;;;;;14.00;100940.00;;;;5046845;28;20041;-74
2021/09/11 02:50:07;;;;;;;396.77;358.02;;;;;14.00;100919.00;;;;5045837;28;20045;-74
2021/09/11 02:52:36;;;;;;;756.42;437.85;;;;;14.00;100943.00;;;;5047636;28;20056;-74
2021/09/11 02:55:05;;;;;;;1999.90;999.90;;;;;14.00;100934.00;;;;5047201;28;20128;-74
2021/09/11 02:57:34;;;;;;;47.88;32.88;;;;;13.90;100918.00;;;;5047218;28;20052;-73
2021/09/11 03:00:04;;;;;;;0.75;0.75;;;;;13.90;100926.00;;;;5046530;28;20049;-73
2021/09/11 03:02:33;;;;;;;46.53;5.65;;;;;14.00;100921.00;;;;5045630;28;20059;-74
2021/09/11 03:05:02;;;;;;;11.25;8.30;;;;;13.90;100922.00;;;;5046843;28;20080;-74
2021/09/11 03:07:31;;;;;;;1211.35;551.20;;;;;13.90;100910.00;;;;5047175;28;20492;-74
2021/09/11 03:10:00;;;;;;;4.32;4.03;;;;;13.90;100913.00;;;;5046623;28;20567;-74
2021/09/11 03:12:29;;;;;;;5.60;3.63;;;;;13.90;100938.00;;;;5046608;28;20049;-74
2021/09/11 03:14:58;;;;;;;9.90;6.53;;;;;13.90;100931.00;;;;5046755;28;20060;-74
2021/09/11 03:17:27;;;;;;;11.77;5.28;;;;;13.90;100939.00;;;;5047019;28;20041;-74
2021/09/11 03:19:56;;;;;;;7.20;5.10;;;;;13.90;100944.00;;;;5046696;28;20063;-74
2021/09/11 03:22:25;;;;;;;8.35;3.28;;;;;13.90;100943.00;;;;5046578;28;20076;-73
2021/09/11 03:24:54;;;;;;;9.48;5.05;;;;;13.90;100927.00;;;;5046257;28;20084;-74
2021/09/11 03:27:23;;;;;;;12.73;7.38;;;;;13.90;100932.00;;;;5046095;28;20523;-74
2021/09/11 03:29:52;;;;;;;14.27;11.90;;;;;13.90;100939.00;;;;5046476;28;20060;-74
2021/09/11 03:32:21;;;;;;;79.45;60.42;;;;;13.90;100924.00;;;;5046818;28;20057;-74
2021/09/11 03:34:50;;;;;;;10.00;6.35;;;;;13.90;100936.00;;;;5045654;28;20052;-74
2021/09/11 03:37:19;;;;;;;5.07;4.68;;;;;13.90;100932.00;;;;5046220;28;20048;-74
2021/09/11 03:39:48;;;;;;;124.40;10.52;;;;;13.90;100929.00;;;;5046138;28;20759;-74
2021/09/11 03:42:17;;;;;;;4.65;3.10;;;;;13.90;100915.00;;;;5046173;28;20049;-74
2021/09/11 03:44:45;;;;;;;4.85;2.40;;;;;13.80;100908.00;;;;5046571;28;20060;-74
2021/09/11 03:47:14;;;;;;;3.53;2.55;;;;;13.80;100925.00;;;;5044940;28;20045;-74
2021/09/11 03:49:43;;;;;;;3.97;2.53;;;;;13.90;100905.00;;;;5045729;28;20052;-74
2021/09/11 03:52:12;;;;;;;7.43;3.47;;;;;13.90;100922.00;;;;5045858;28;20045;-74
2021/09/11 03:54:41;;;;;;;4.90;3.80;;;;;13.90;100922.00;;;;5044965;28;20516;-73
2021/09/11 03:57:10;;;;;;;6.80;3.92;;;;;13.80;100914.00;;;;5046024;28;20053;-74
2021/09/11 03:59:39;;;;;;;10.18;5.32;;;;;13.80;100927.00;;;;5045705;28;20053;-74
2021/09/11 04:02:08;;;;;;;8.20;4.40;;;;;13.80;100922.00;;;;5045700;28;20049;-73
2021/09/11 04:04:37;;;;;;;33.55;6.88;;;;;13.80;100906.00;;;;5045623;28;20052;-74
2021/09/11 04:07:06;;;;;;;5.63;3.20;;;;;13.80;100901.00;;;;5046087;28;20128;-74
2021/09/11 04:09:35;;;;;;;9.55;6.63;;;;;13.80;100920.00;;;;5046259;28;20052;-74
2021/09/11 04:12:04;;;;;;;3.38;2.50;;;;;13.80;100922.00;;;;5046156;28;20056;-74
2021/09/11 04:14:33;;;;;;;0.22;0.17;;;;;13.80;100902.00;;;;5045752;28;20060;-74
2021/09/11 04:17:02;;;;;;;1.85;1.55;;;;;13.80;100916.00;;;;5045628;28;20064;-74
2021/09/11 04:19:32;;;;;;;9.38;4.30;;;;;13.80;100925.00;;;;5045690;28;20053;-74
2021/09/11 04:22:00;;;;;;;4.35;2.83;;;;;13.80;100920.00;;;;5045589;28;20041;-74
2021/09/11 04:24:29;;;;;;;4.22;3.33;;;;;13.80;100901.00;;;;5045706;28;20045;-74
2021/09/11 04:26:58;;;;;;;5.97;2.80;;;;;13.80;100900.00;;;;5045828;28;20059;-74
2021/09/11 04:29:27;;;;;;;18.67;4.80;;;;;13.80;100909.00;;;;5045750;28;20500;-74
2021/09/11 04:31:56;;;;;;;270.45;72.40;;;;;13.80;100913.00;;;;5045828;28;20484;-74
2021/09/11 04:34:26;;;;;;;5.60;3.33;;;;;13.80;100905.00;;;;5045991;28;20049;-74
2021/09/11 04:36:55;;;;;;;0.00;0.00;;;;;13.80;100906.00;;;;5045879;28;20059;-74
2021/09/11 04:39:24;;;;;;;0.40;0.20;;;;;13.80;100880.00;;;;5046269;28;20076;-74
2021/09/11 04:41:53;;;;;;;88.20;38.15;;;;;13.70;100897.00;;;;5045199;28;20447;-74
2021/09/11 04:44:22;;;;;;;5.80;5.38;;;;;13.80;100895.00;;;;5045441;28;20517;-74
2021/09/11 04:46:51;;;;;;;2.70;2.58;;;;;13.80;100873.00;;;;5047769;28;20103;-73
2021/09/11 04:49:19;;;;;;;0.13;0.10;;;;;13.80;100861.00;;;;5049192;28;20048;-73
2021/09/11 04:51:48;;;;;;;2.35;0.60;;;;;13.80;100875.00;;;;5049259;28;20061;-73
2021/09/11 04:54:17;;;;;;;22.77;4.47;;;;;13.70;100864.00;;;;5049040;28;20131;-73
2021/09/11 04:56:46;;;;;;;0.68;0.40;;;;;13.80;100883.00;;;;5049127;28;20049;-74
2021/09/11 04:59:15;;;;;;;0.98;0.55;;;;;13.80;100876.00;;;;5049484;28;20060;-73
2021/09/11 05:01:44;;;;;;;0.00;0.00;;;;;13.80;100838.00;;;;5049281;28;20044;-73
2021/09/11 05:04:13;;;;;;;0.00;0.00;;;;;13.80;100858.00;;;;5049316;28;20144;-74
2021/09/11 05:06:42;;;;;;;0.30;0.15;;;;;13.80;100847.00;;;;5049112;28;20060;-73
2021/09/11 05:09:11;;;;;;;0.10;0.10;;;;;13.80;100861.00;;;;5048746;28;20049;-73
2021/09/11 05:11:40;;;;;;;0.03;0.03;;;;;13.80;100870.00;;;;5049149;28;20067;-73
2021/09/11 05:14:09;;;;;;;0.05;0.00;;;;;13.90;100861.00;;;;5048720;28;20443;-73
2021/09/11 05:16:38;;;;;;;0.10;0.10;;;;;13.90;100849.00;;;;5049202;28;20053;-73
2021/09/11 05:19:07;;;;;;;7.22;5.10;;;;;14.00;100834.00;;;;5048573;28;20052;-73
2021/09/11 05:21:35;;;;;;;0.20;0.20;;;;;14.00;100839.00;;;;5048494;28;20619;-73
2021/09/11 05:24:05;;;;;;;1.17;1.17;;;;;14.00;100831.00;;;;5049135;28;20500;-73
2021/09/11 05:26:34;;;;;;;3.30;3.13;;;;;14.00;100858.00;;;;5049132;28;20049;-73
2021/09/11 05:29:03;;;;;;;0.10;0.10;;;;;14.00;100844.00;;;;5048961;28;20056;-73
2021/09/11 05:31:32;;;;;;;0.20;0.20;;;;;14.10;100845.00;;;;5048859;28;20049;-74
2021/09/11 05:34:01;;;;;;;0.10;0.10;;;;;14.20;100855.00;;;;5048284;28;20053;-73
2021/09/11 05:36:30;;;;;;;0.08;0.08;;;;;14.20;100849.00;;;;5048299;28;20049;-73
2021/09/11 05:39:00;;;;;;;0.20;0.20;;;;;14.20;100829.00;;;;5048560;28;20076;-73
2021/09/11 05:41:28;;;;;;;1.70;1.65;;;;;14.20;100838.00;;;;5048336;28;20045;-73
2021/09/11 05:43:57;;;;;;;0.00;0.00;;;;;14.20;100839.00;;;;5048116;28;20049;-73
2021/09/11 05:46:26;;;;;;;0.00;0.00;;;;;14.10;100835.00;;;;5048232;28;20049;-73
2021/09/11 05:48:55;;;;;;;2.28;2.17;;;;;14.20;100820.00;;;;5048433;28;20049;-73
2021/09/11 05:51:24;;;;;;;0.00;0.00;;;;;14.10;100830.00;;;;5048927;28;20056;-73
2021/09/11 05:53:53;;;;;;;0.00;0.00;;;;;14.20;100813.00;;;;5048502;28;20091;-73
2021/09/11 05:56:22;;;;;;;0.20;0.20;;;;;14.20;100833.00;;;;5048007;28;20049;-73
2021/09/11 05:58:51;;;;;;;0.00;0.00;;;;;14.20;100816.00;;;;5047039;28;20136;-73
2021/09/11 06:01:20;;;;;;;0.00;0.00;;;;;14.20;100820.00;;;;5048103;28;20060;-73
2021/09/11 06:03:49;;;;;;;0.00;0.00;;;;;14.20;100801.00;;;;5047945;28;20593;-73
2021/09/11 06:06:18;;;;;;;0.10;0.10;;;;;14.20;100799.00;;;;5047720;28;20068;-73
2021/09/11 06:08:48;;;;;;;5.13;3.85;;;;;14.10;100827.00;;;;5047937;28;20045;-73
2021/09/11 06:11:17;;;;;;;0.10;0.10;;;;;14.10;100807.00;;;;5047892;28;20068;-73
2021/09/11 06:13:46;;;;;;;0.00;0.00;;;;;14.10;100810.00;;;;5047297;28;20053;-74
2021/09/11 06:16:15;;;;;;;0.00;0.00;;;;;14.10;100816.00;;;;5047344;28;20431;-73
2021/09/11 06:18:46;;;;;;;0.00;0.00;;;;;14.00;100809.00;;;;5047741;28;20049;-73
2021/09/11 06:21:14;;;;;;;1.75;1.67;;;;;14.00;100814.00;;;;5047691;28;20162;-73
2021/09/11 06:23:43;;;;;;;0.00;0.00;;;;;14.00;100823.00;;;;5047470;28;20562;-74
2021/09/11 06:26:12;;;;;;;44.47;20.90;;;;;14.00;100810.00;;;;5047440;28;20071;-73
2021/09/11 06:28:41;;;;;;;0.13;0.10;;;;;14.00;100825.00;;;;5047359;28;20045;-73
2021/09/11 06:31:10;;;;;;;0.10;0.10;;;;;14.00;100827.00;;;;5047595;28;20515;-73
2021/09/11 06:33:39;;;;;;;0.85;0.85;;;;;13.90;100832.00;;;;5047144;28;20049;-73
2021/09/11 06:36:11;;;;;;;50.92;9.45;;;;;13.90;100829.00;;;;5046723;28;20045;-73
2021/09/11 06:38:40;;;;;;;0.52;0.52;;;;;14.00;100837.00;;;;5047079;28;20099;-73
2021/09/11 06:41:09;;;;;;;1.83;1.63;;;;;14.10;100813.00;;;;5047703;28;20056;-73
2021/09/11 06:43:38;;;;;;;1.58;1.55;;;;;14.00;100810.00;;;;5047528;28;20052;-73
2021/09/11 06:46:06;;;;;;;0.00;0.00;;;;;14.10;100810.00;;;;5047829;28;20057;-73
2021/09/11 06:48:35;;;;;;;0.25;0.20;;;;;14.10;100826.00;;;;5047180;28;20053;-73
2021/09/11 06:51:04;;;;;;;0.00;0.00;;;;;14.10;100821.00;;;;5046855;28;20049;-73
2021/09/11 06:53:33;;;;;;;0.00;0.00;;;;;14.10;100827.00;;;;5047373;28;20558;-73
2021/09/11 06:56:02;;;;;;;2.45;1.75;;;;;14.10;100823.00;;;;5046966;28;20049;-73
2021/09/11 06:58:31;;;;;;;2.05;0.77;;;;;14.10;100811.00;;;;5046997;28;20047;-73
2021/09/11 07:01:00;;;;;;;0.25;0.25;;;;;14.00;100832.00;;;;5047005;28;21080;-73
2021/09/11 07:03:30;;;;;;;1.05;1.05;;;;;14.00;100815.00;;;;5046931;28;20080;-73
2021/09/11 07:06:06;;;;;;;0.52;0.52;;;;;13.90;100815.00;;;;5046752;28;20053;-73
2021/09/11 07:08:35;;;;;;;0.20;0.20;;;;;14.00;100826.00;;;;5045477;28;20044;-73
2021/09/11 07:11:04;;;;;;;0.00;0.00;;;;;14.00;100829.00;;;;5046830;28;20103;-73
2021/09/11 07:13:33;;;;;;;1.48;1.15;;;;;14.00;100830.00;;;;5046599;28;20045;-73
2021/09/11 07:16:02;;;;;;;0.70;0.55;;;;;14.00;100818.00;;;;5046749;28;20515;-73
2021/09/11 07:18:31;;;;;;;0.77;0.68;;;;;13.90;100818.00;;;;5046587;28;20696;-73
2021/09/11 07:21:00;;;;;;;0.63;0.57;;;;;13.90;100822.00;;;;5046275;28;20060;-73
2021/09/11 07:23:29;;;;;;;0.70;0.68;;;;;13.90;100826.00;;;;5047033;28;20071;-73
2021/09/11 07:25:58;;;;;;;0.68;0.60;;;;;13.90;100825.00;;;;5046419;28;20053;-73
2021/09/11 07:28:27;;;;;;;1.02;0.80;;;;;13.80;100831.00;;;;5046295;28;20420;-73
2021/09/11 07:30:56;;;;;;;0.20;0.20;;;;;13.70;100814.00;;;;5046781;28;20053;-74
2021/09/11 07:33:26;;;;;;;2.70;0.65;;;;;13.70;100834.00;;;;5046805;28;20098;-73
2021/09/11 07:35:55;;;;;;;0.50;0.47;;;;;13.70;100831.00;;;;5046140;28;20515;-73
2021/09/11 07:38:23;;;;;;;0.50;0.50;;;;;13.70;100848.00;;;;5046620;28;20051;-73
2021/09/11 07:40:53;;;;;;;0.40;0.40;;;;;13.70;100822.00;;;;5046264;28;20055;-73
2021/09/11 07:43:21;;;;;;;0.95;0.57;;;;;13.70;100823.00;;;;5046095;28;20081;-73
2021/09/11 07:45:50;;;;;;;0.40;0.40;;;;;13.70;100851.00;;;;5046192;28;20508;-73
2021/09/11 07:48:19;;;;;;;0.65;0.50;;;;;13.60;100828.00;;;;5046325;28;20432;-73
2021/09/11 07:50:48;;;;;;;0.60;0.40;;;;;13.60;100838.00;;;;5046033;28;20053;-73
2021/09/11 07:53:18;;;;;;;1.27;0.55;;;;;13.50;100853.00;;;;5046406;28;20045;-73
2021/09/11 07:55:47;;;;;;;0.50;0.50;;;;;13.50;100838.00;;;;5045958;28;20049;-73
2021/09/11 07:58:16;;;;;;;0.38;0.35;;;;;13.40;100847.00;;;;5046313;28;20049;-73
2021/09/11 08:00:45;;;;;;;0.28;0.25;;;;;13.40;100859.00;;;;5046190;28;20041;-74
2021/09/11 08:03:14;;;;;;;3.67;2.35;;;;;13.30;100827.00;;;;5046500;28;20057;-73
2021/09/11 08:05:43;;;;;;;3.38;2.35;;;;;13.10;100845.00;;;;5045877;28;20127;-74
2021/09/11 08:08:12;;;;;;;58.80;8.32;;;;;13.00;100851.00;;;;5045856;28;20547;-74
2021/09/11 08:10:41;;;;;;;38.40;17.30;;;;;12.90;100848.00;;;;5046080;28;20048;-73
2021/09/11 08:13:10;;;;;;;112.40;44.92;;;;;12.80;100847.00;;;;5046119;28;20067;-74
2021/09/11 08:15:39;;;;;;;1.45;0.80;;;;;12.70;100864.00;;;;5045535;28;20052;-74
2021/09/11 08:18:10;;;;;;;3.92;1.23;;;;;12.50;100875.00;;;;5045980;28;20045;-73
2021/09/11 08:20:39;;;;;;;435.60;351.80;;;;;12.50;100880.00;;;;5046813;28;20048;-73
2021/09/11 08:23:08;;;;;;;1.50;0.70;;;;;12.40;100865.00;;;;5050210;28;20144;-73
2021/09/11 08:25:37;;;;;;;1.15;1.05;;;;;12.30;100890.00;;;;5050136;28;20405;-73
2021/09/11 08:28:06;;;;;;;1.35;1.10;;;;;12.20;100879.00;;;;5050210;28;20045;-73
2021/09/11 08:30:35;;;;;;;1.73;1.23;;;;;12.10;100888.00;;;;5050094;28;20131;-73
2021/09/11 08:33:04;;;;;;;4.00;3.80;;;;;12.00;100891.00;;;;5049307;28;20651;-73
2021/09/11 08:35:32;;;;;;;62.25;55.47;;;;;11.90;100906.00;;;;5049303;28;20056;-74
2021/09/11 08:38:02;;;;;;;3.15;1.23;;;;;11.90;100911.00;;;;5049662;28;20059;-73
2021/09/11 08:40:31;;;;;;;597.88;339.67;;;;;11.80;100916.00;;;;5049548;28;20107;-73
2021/09/11 08:43:01;;;;;;;1999.90;999.90;;;;;11.70;100905.00;;;;5049888;28;20051;-73
2021/09/11 08:45:30;;;;;;;1999.90;999.90;;;;;11.60;100899.00;;;;5049254;28;20123;-73
2021/09/11 08:48:02;;;;;;;3.88;1.80;;;;;11.70;100909.00;;;;5049666;28;20045;-74
2021/09/11 08:50:31;;;;;;;3.45;2.60;;;;;11.60;100911.00;;;;5049885;28;20056;-73
2021/09/11 08:53:00;;;;;;;3.08;2.85;;;;;11.60;100922.00;;;;5049328;28;20061;-73
2021/09/11 08:55:29;;;;;;;479.30;142.32;;;;;11.60;100937.00;;;;5049570;28;20049;-73
2021/09/11 08:58:07;;;;;;;14.50;3.00;;;;;11.50;100924.00;;;;5049113;28;20428;-73
2021/09/11 09:00:46;;;;;;;20.67;4.00;;;;;11.40;100939.00;;;;5049468;28;20420;-73
2021/09/11 09:03:41;;;;;;;23.27;3.17;;;;;11.40;100933.00;;;;5049213;28;20053;-73
2021/09/11 09:06:19;;;;;;;16.63;4.53;;;;;11.50;100949.00;;;;5048892;28;20053;-73
2021/09/11 09:08:51;;;;;;;3.53;1.27;;;;;11.50;100942.00;;;;5049060;28;20057;-73
2021/09/11 09:11:22;;;;;;;;;;;;;11.50;100957.00;;;;5049553;28;20512;-73
2021/09/11 09:14:03;;;;;;;6.85;6.32;;;;;11.50;100945.00;;;;5048868;28;19924;-73
2021/09/11 09:16:58;;;;;;;0.32;0.20;;;;;11.50;100962.00;;;;5049701;28;20056;-74
2021/09/11 09:19:26;;;;;;;1.08;0.20;;;;;11.60;100975.00;;;;5049293;28;20645;-73
2021/09/11 09:22:04;;;;;;;36.20;2.70;;;;;11.70;100988.00;;;;5048693;28;20053;-73
2021/09/11 09:24:36;;;;;;;2.55;1.10;;;;;11.70;100977.00;;;;5049083;28;20049;-73
2021/09/11 09:27:07;;;;;;;1.65;0.40;;;;;11.80;100971.00;;;;5048459;28;20048;-73
2021/09/11 09:29:38;;;;;;;0.10;0.10;;;;;11.80;100985.00;;;;5049093;28;20107;-73
2021/09/11 09:32:07;;;;;;;179.32;21.60;;;;;11.90;100995.00;;;;5048103;28;20045;-73
2021/09/11 09:34:39;;;;;;;5.38;5.07;;;;;12.00;100987.00;;;;5049063;28;20064;-73
2021/09/11 09:37:10;;;;;;;4.45;4.05;;;;;12.10;100960.00;;;;5048369;28;20045;-73
2021/09/11 09:39:40;;;;;;;;;;;;;12.20;100998.00;;;;5048206;28;20048;-73
2021/09/11 09:42:09;;;;;;;6.85;3.65;;;;;12.30;100985.00;;;;5048733;28;19928;-73
2021/09/11 09:44:50;;;;;;;11.55;3.63;;;;;12.40;100986.00;;;;5047891;28;20063;-74
2021/09/11 09:47:23;;;;;;;8.40;3.20;;;;;12.50;101011.00;;;;5048461;28;20408;-73
2021/09/11 09:50:11;;;;;;;4.38;2.67;;;;;12.60;101020.00;;;;5048323;28;20083;-73
2021/09/11 09:52:40;;;;;;;9.55;8.88;;;;;12.60;100995.00;;;;5047789;28;20056;-73
2021/09/11 09:55:15;;;;;;;4.85;4.40;;;;;12.70;101013.00;;;;5048637;28;20045;-72
2021/09/11 09:57:45;;;;;;;4.32;1.67;;;;;12.80;101022.00;;;;5047858;28;20504;-73
2021/09/11 10:00:14;;;;;;;0.17;0.17;;;;;12.90;100998.00;;;;5048036;28;20049;-73
2021/09/11 10:02:43;;;;;;;1.40;0.38;;;;;13.00;100995.00;;;;5047674;28;20055;-72
2021/09/11 10:05:16;;;;;;;1.20;1.10;;;;;13.10;101027.00;;;;5047931;28;20041;-73
2021/09/11 10:08:06;;;;;;;102.28;8.85;;;;;13.20;101031.00;;;;5048368;28;20053;-74
2021/09/11 10:10:40;;;;;;;49.08;7.05;;;;;13.30;101022.00;;;;5047678;28;20049;-73
2021/09/11 10:13:19;;;;;;;190.85;174.93;;;;;13.40;101037.00;;;;5047264;28;20068;-74
2021/09/11 10:16:08;;;;;;;2.70;0.93;;;;;13.60;101037.00;;;;5047970;28;20053;-73
2021/09/11 10:18:35;;;;;;;11.43;3.92;;;;;13.60;101043.00;;;;5047692;28;20052;-73
2021/09/11 10:21:28;;;;;;;3.67;2.15;;;;;13.70;101025.00;;;;5047292;28;20048;-73
2021/09/11 10:23:57;;;;;;;9.05;3.10;;;;;13.80;101043.00;;;;5047598;28;20081;-73
2021/09/11 10:26:48;;;;;;;5.30;3.40;;;;;13.90;101045.00;;;;5047552;28;20053;-73
2021/09/11 10:29:35;;;;;;;5.13;3.67;;;;;13.90;101047.00;;;;5046845;28;20131;-73
2021/09/11 10:32:28;;;;;;;5.50;5.00;;;;;14.00;101040.00;;;;5046348;28;20107;-75
2021/09/11 10:35:06;;;;;;;32.15;29.20;;;;;14.10;101047.00;;;;5047648;28;20067;-73
2021/09/11 10:37:47;;;;;;;11.73;4.32;;;;;14.10;101058.00;;;;5048079;28;20079;-74
2021/09/11 10:40:36;;;;;;;12.10;11.25;;;;;14.20;101057.00;;;;5047135;28;20061;-75
2021/09/11 10:43:19;;;;;;;4.53;1.80;;;;;14.20;101032.00;;;;5046472;28;20937;-74
2021/09/11 10:45:55;;;;;;;1.25;1.17;;;;;14.30;101055.00;;;;5046050;28;20048;-75
2021/09/11 10:48:33;;;;;;;4.07;3.08;;;;;14.40;101059.00;;;;5047130;28;20051;-74
2021/09/11 10:51:20;;;;;;;9.70;5.88;;;;;14.50;101050.00;;;;5047435;28;20053;-75
2021/09/11 10:53:59;;;;;;;6.65;2.83;;;;;14.60;101054.00;;;;5047126;28;20405;-74
2021/09/11 10:56:37;;;;;;;0.30;0.30;;;;;14.60;101048.00;;;;5047102;28;20123;-75
2021/09/11 10:59:18;;;;;;;8.52;3.60;;;;;14.70;101050.00;;;;5046730;28;20056;-74
2021/09/11 11:02:06;;;;;;;2.78;2.22;;;;;14.80;101054.00;;;;5047322;28;20044;-74
2021/09/11 11:04:47;;;;;;;7.13;2.72;;;;;14.80;101058.00;;;;5047152;28;20110;-74
2021/09/11 11:07:19;;;;;;;2.30;1.03;;;;;14.80;101059.00;;;;5046960;28;20139;-73
2021/09/11 11:09:49;;;;;;;3.10;1.42;;;;;14.90;101061.00;;;;5047320;28;20045;-74
2021/09/11 11:12:32;;;;;;;10.77;9.95;;;;;15.00;101047.00;;;;5046808;28;20078;-73
2021/09/11 11:15:07;;;;;;;34.10;22.92;;;;;15.10;101060.00;;;;5045315;28;20499;-72
2021/09/11 11:17:38;;;;;;;6.47;1.83;;;;;15.10;101049.00;;;;5046845;28;20689;-74
2021/09/11 11:20:08;;;;;;;166.65;53.40;;;;;15.10;101060.00;;;;5046087;28;20598;-73
2021/09/11 11:22:39;;;;;;;0.28;0.20;;;;;15.20;101063.00;;;;5046367;28;20424;-73
2021/09/11 11:25:11;;;;;;;3.80;3.60;;;;;15.30;101052.00;;;;5046973;28;20428;-74
2021/09/11 11:27:41;;;;;;;103.82;68.93;;;;;15.30;101051.00;;;;5045972;28;20051;-74
2021/09/11 11:30:11;;;;;;;6.28;5.88;;;;;15.50;101070.00;;;;5046190;28;20131;-74
2021/09/11 11:32:40;;;;;;;402.25;166.40;;;;;15.50;101073.00;;;;5046318;28;20088;-74
2021/09/11 11:35:09;;;;;;;290.33;89.22;;;;;15.60;101045.00;;;;5046226;28;20053;-74
2021/09/11 11:37:39;;;;;;;4.93;2.15;;;;;15.70;101063.00;;;;5046296;28;20630;-74
2021/09/11 11:40:12;;;;;;;6.32;2.97;;;;;15.90;101082.00;;;;5046520;28;20072;-73
2021/09/11 11:42:43;;;;;;;5.57;2.28;;;;;16.00;101063.00;;;;5045854;28;20059;-74
2021/09/11 11:45:15;;;;;;;7.47;4.15;;;;;16.00;101072.00;;;;5046180;28;20053;-74
2021/09/11 11:48:02;;;;;;;0.00;0.00;;;;;16.10;101088.00;;;;5046065;28;20045;-74
2021/09/11 11:50:35;;;;;;;5.43;3.83;;;;;16.20;101093.00;;;;5046528;28;20059;-74
2021/09/11 11:53:18;;;;;;;3.55;3.25;;;;;16.30;101066.00;;;;5046342;28;20052;-74
2021/09/11 11:55:53;;;;;;;8.57;4.40;;;;;16.30;101078.00;;;;5046136;28;20140;-74
2021/09/11 11:58:24;;;;;;;12.48;9.73;;;;;16.30;101079.00;;;;5046112;28;20057;-74
2021/09/11 12:00:53;;;;;;;;;;;;;16.50;101114.00;;;;5046931;28;20504;-73
2021/09/11 12:03:45;;;;;;;5.15;2.78;;;;;16.60;101109.00;;;;5045700;28;19990;-74
2021/09/11 12:06:19;;;;;;;212.32;23.00;;;;;16.60;101107.00;;;;5045865;28;20059;-74
2021/09/11 12:08:49;;;;;;;322.35;87.45;;;;;16.50;101089.00;;;;5046320;28;20049;-74
2021/09/11 12:11:27;;;;;;;;;;;;;16.80;101103.00;;;;5046356;28;20147;-74
2021/09/11 12:14:02;;;;;;;0.65;0.50;;;;;16.60;101099.00;;;;5045318;28;19924;-74
2021/09/11 12:16:32;;;;;;;69.03;11.27;;;;;16.80;101111.00;;;;5046174;28;20099;-74
2021/09/11 12:19:20;;;;;;;0.10;0.10;;;;;16.90;101092.00;;;;5046090;28;20243;-74
2021/09/11 12:21:49;;;;;;;0.00;0.00;;;;;17.00;101084.00;;;;5045662;28;20045;-74